Aérodrome de la Montagne Noire

LFMG · Upper Garonne, Occitanie, 法国

罗盘
风向 的 Aérodrome de la Montagne Noire 18/36
风: 0 kt, 0 beaufort


改变
0 1.000 2.000 3.000 4.000 5.000
OVC 1.400 ft
METAR LFCK 292330Z AUTO 00000KT 1000 0750 R14/1000D BCFG OVC014 03/03 Q1020

METAR Aérodrome de la Montagne Noire - LFMG

Aérodrome de la Montagne Noire是,法国中的小机场。 该机场有3条跑道: 18/36, 3/21 和 12/30. 该领域的国际民航组织标志是LFMG.

这份报告是针对2022年11月30日 00:30, 当地时间在Castres-Mazamet Airport进行的。

机场观察

可变方向的风很小或没有风。

可见度为750 m。 跑道14的能见度为1.000 m 和 减少。

有乌云密布在1.400 ft的高度。 破损或更高的上限为1.400 ft。

当前天气为的补丁 多雾路段。 温度和风寒是3 °C。 露点为3 °C,相对湿度为100%。 海平面上的气压为1020 hPa (QNH)。

白天

今天,太阳从08:02升起,在17:18降落。 这适用于Aérodrome de la Montagne Noire,世界夏令时可能有所不同。 当地时间与世界标准时间之间的时差为+1 小时。 当前,没有夏令时有效。

公司介绍

我们没有关于这个机场的公司信息。

体会

到Vliegles.nl去找飞行课程,跳伞和其他飞行体验。 浏览页面,了解Aérodrome de la Montagne Noire附近所有可用的活动。 你也可以使用搜索功能来寻找你所在地附近的特定飞行课程、跳伞或其他飞行体验。

警示语

跑道14处的能见度为1.000 m 和 减少。

跑道

Id 标题 侧风 逆风 侧风 %
18/36 004°-184°
3/21 034°-214°
12/30 121°-301°

逆风成分最大的方向会被突出显示,并用于横风计算。 这并不一定意味着这个方向在使用。

乌云

1.400 ft OVC 乌云密布

温度 & 天气

天气 的补丁 多雾路段
温度 3 °C
露点 3 °C
相对湿度 100%
Kp-index 3 (0-9)

白天

日出
08:01 (7:22)
中午
12:39
日落
17:16

小工具

你想在你的网站上有一个关于Aérodrome de la Montagne Noire的当前航空天气(METAR)的小部件吗?

显示HTML代码

我们和第三方通过cookies跟踪您在我们网站上的互联网行为。如果你继续,我们认为你同意我们的饼干政策